Time;durP1;ratioP1;P1;durP2;ratioP2;P2;SDS_P1;SDS_P2;PMS_P1;PMS_P2;Temp;Humidity;BMP_temperature;BMP_pressure;BME280_temperature;BME280_humidity;BME280_pressure;Samples;Min_cycle;Max_cycle;Signal;HPM_P1;HPM_P2
2022/04/07 00:00:33;;;;;;;4.13;1.95;;;;;;;;;;4944480;29;20107;-65
2022/04/07 00:02:59;;;;;;;4.55;2.45;;;;;;;;;;4942674;28;20346;-65
2022/04/07 00:05:24;;;;;;;4.60;2.00;;;;;;;;;;4921156;28;20203;-64
2022/04/07 00:07:50;;;;;;;3.88;1.80;;;;;;;;;;4922949;29;20031;-65
2022/04/07 00:10:15;;;;;;;3.03;1.77;;;;;;;;;;4920542;29;20024;-65
2022/04/07 00:12:42;;;;;;;4.13;1.77;;;;;;;;;;4938882;29;20154;-65
2022/04/07 00:15:09;;;;;;;2.35;1.50;;;;;;;;;;4928686;28;20055;-64
2022/04/07 00:17:35;;;;;;;3.72;1.90;;;;;;;;;;4942936;28;20043;-64
2022/04/07 00:20:01;;;;;;;2.35;1.65;;;;;;;;;;4939013;28;20270;-65
2022/04/07 00:22:26;;;;;;;3.63;2.10;;;;;;;;;;4913518;29;20044;-63
2022/04/07 00:24:52;;;;;;;4.85;2.30;;;;;;;;;;4920125;29;20058;-66
2022/04/07 00:27:17;;;;;;;3.35;2.35;;;;;;;;;;4921993;29;20375;-64
2022/04/07 00:29:43;;;;;;;3.63;2.20;;;;;;;;;;4921296;29;20225;-65
2022/04/07 00:32:08;;;;;;;5.25;2.22;;;;;;;;;;4920220;29;20067;-65
2022/04/07 00:34:34;;;;;;;2.95;2.10;;;;;;;;;;4921135;29;20040;-67
2022/04/07 00:37:00;;;;;;;2.67;2.30;;;;;;;;;;4912295;29;20082;-65
2022/04/07 00:39:25;;;;;;;4.55;2.28;;;;;;;;;;4918817;29;20044;-67
2022/04/07 00:41:51;;;;;;;6.28;2.53;;;;;;;;;;4917550;29;20237;-65
2022/04/07 00:44:16;;;;;;;3.55;2.80;;;;;;;;;;4917965;29;20312;-66
2022/04/07 00:46:42;;;;;;;4.05;2.60;;;;;;;;;;4919275;29;20177;-66
2022/04/07 00:49:08;;;;;;;3.97;2.45;;;;;;;;;;4939156;28;20189;-66
2022/04/07 00:51:37;;;;;;;2.63;2.30;;;;;;;;;;4920384;28;20367;-65
2022/04/07 00:54:03;;;;;;;6.38;2.85;;;;;;;;;;4917434;29;20086;-66
2022/04/07 00:56:28;;;;;;;4.13;2.20;;;;;;;;;;4918003;29;20329;-64
2022/04/07 00:58:54;;;;;;;3.00;2.20;;;;;;;;;;4918390;29;20118;-63
2022/04/07 01:01:23;;;;;;;4.55;2.40;;;;;;;;;;4925399;29;20057;-63
2022/04/07 01:03:50;;;;;;;2.58;2.17;;;;;;;;;;4934461;28;20331;-63
2022/04/07 01:06:16;;;;;;;3.47;2.40;;;;;;;;;;4910774;29;20052;-63
2022/04/07 01:08:41;;;;;;;3.45;2.72;;;;;;;;;;4918521;29;20094;-64
2022/04/07 01:11:08;;;;;;;3.70;2.60;;;;;;;;;;4919371;29;20047;-63
2022/04/07 01:13:50;;;;;;;4.57;2.70;;;;;;;;;;4911221;29;20490;-65
2022/04/07 01:16:17;;;;;;;3.03;2.67;;;;;;;;;;4920214;29;20040;-65
2022/04/07 01:18:44;;;;;;;2.42;2.22;;;;;;;;;;4926967;28;20055;-64
2022/04/07 01:21:11;;;;;;;4.72;2.80;;;;;;;;;;4932807;29;20285;-64
2022/04/07 01:23:38;;;;;;;4.57;2.60;;;;;;;;;;4921095;29;20043;-64
2022/04/07 01:26:09;;;;;;;5.18;2.63;;;;;;;;;;4919538;29;20040;-66
2022/04/07 01:28:34;;;;;;;3.25;2.72;;;;;;;;;;4915704;29;20044;-65
2022/04/07 01:31:00;;;;;;;3.90;2.60;;;;;;;;;;4918631;29;20044;-64
2022/04/07 01:33:25;;;;;;;4.80;2.38;;;;;;;;;;4922443;29;20229;-64
2022/04/07 01:35:52;;;;;;;4.13;2.40;;;;;;;;;;4933869;28;20419;-64
2022/04/07 01:38:19;;;;;;;4.05;2.13;;;;;;;;;;4918774;29;20130;-63
2022/04/07 01:40:46;;;;;;;3.85;2.28;;;;;;;;;;4919882;29;20107;-64
2022/04/07 01:43:13;;;;;;;3.13;2.17;;;;;;;;;;4917056;29;20052;-63
2022/04/07 01:45:39;;;;;;;2.20;1.83;;;;;;;;;;4925467;29;20044;-65
2022/04/07 01:48:08;;;;;;;2.28;1.90;;;;;;;;;;4933854;28;20265;-64
2022/04/07 01:50:34;;;;;;;2.42;1.80;;;;;;;;;;4922050;29;20028;-63
2022/04/07 01:53:01;;;;;;;3.50;1.60;;;;;;;;;;4911075;29;20044;-65
2022/04/07 01:55:27;;;;;;;1.75;1.65;;;;;;;;;;4918701;29;20035;-63
2022/04/07 01:57:53;;;;;;;2.22;1.30;;;;;;;;;;4914973;29;20039;-64
2022/04/07 02:00:19;;;;;;;2.63;1.70;;;;;;;;;;4916030;29;20036;-65
2022/04/07 02:02:45;;;;;;;1.80;1.45;;;;;;;;;;4918253;29;20059;-63
2022/04/07 02:05:11;;;;;;;2.85;1.55;;;;;;;;;;4919444;29;20043;-64
2022/04/07 02:07:39;;;;;;;1.45;1.33;;;;;;;;;;4919178;29;20048;-64
2022/04/07 02:10:07;;;;;;;1.60;1.50;;;;;;;;;;4919991;29;20051;-64
2022/04/07 02:12:33;;;;;;;1.90;1.20;;;;;;;;;;4923099;29;20217;-64
2022/04/07 02:14:59;;;;;;;2.38;1.60;;;;;;;;;;4919878;29;20355;-65
2022/04/07 02:17:25;;;;;;;3.33;1.33;;;;;;;;;;4919659;29;20044;-65
2022/04/07 02:19:53;;;;;;;3.13;1.30;;;;;;;;;;4917128;29;20119;-64
2022/04/07 02:22:21;;;;;;;1.42;1.13;;;;;;;;;;4922102;29;20085;-64
2022/04/07 02:24:47;;;;;;;1.95;1.20;;;;;;;;;;4917158;29;20040;-65
2022/04/07 02:27:13;;;;;;;2.67;1.38;;;;;;;;;;4920095;29;20072;-65
2022/04/07 02:29:40;;;;;;;2.78;1.50;;;;;;;;;;4919291;29;20265;-68
2022/04/07 02:32:07;;;;;;;2.60;1.20;;;;;;;;;;4919072;29;20067;-65
2022/04/07 02:34:33;;;;;;;1.85;1.55;;;;;;;;;;4922564;29;20111;-64
2022/04/07 02:36:58;;;;;;;4.22;1.70;;;;;;;;;;4919013;29;20309;-65
2022/04/07 02:39:24;;;;;;;1.92;1.50;;;;;;;;;;4918574;29;20032;-65
2022/04/07 02:41:49;;;;;;;1.90;1.50;;;;;;;;;;4918505;29;20111;-65
2022/04/07 02:44:17;;;;;;;2.03;1.52;;;;;;;;;;4916605;29;20109;-65
2022/04/07 02:46:43;;;;;;;2.38;1.85;;;;;;;;;;4918754;29;20099;-64
2022/04/07 02:49:08;;;;;;;2.17;1.48;;;;;;;;;;4920577;29;20133;-65
2022/04/07 02:51:34;;;;;;;2.53;1.88;;;;;;;;;;4917373;29;20032;-65
2022/04/07 02:53:59;;;;;;;3.65;1.77;;;;;;;;;;4920199;29;20087;-65
2022/04/07 02:56:26;;;;;;;1.65;1.55;;;;;;;;;;4921764;29;20055;-64
2022/04/07 02:58:51;;;;;;;1.30;1.20;;;;;;;;;;4920172;29;20062;-64
2022/04/07 03:01:18;;;;;;;1.75;1.65;;;;;;;;;;4936891;29;20043;-64
2022/04/07 03:03:43;;;;;;;1.30;1.20;;;;;;;;;;4922262;29;20224;-64
2022/04/07 03:06:09;;;;;;;1.65;1.55;;;;;;;;;;4914961;29;20046;-63
2022/04/07 03:08:35;;;;;;;2.17;1.20;;;;;;;;;;4920733;29;20122;-64
2022/04/07 03:11:01;;;;;;;2.08;1.20;;;;;;;;;;4920126;29;20043;-64
2022/04/07 03:13:26;;;;;;;1.77;1.30;;;;;;;;;;4921746;29;20047;-69
2022/04/07 03:15:53;;;;;;;2.45;1.27;;;;;;;;;;4923336;29;20028;-61
2022/04/07 03:18:19;;;;;;;1.40;1.30;;;;;;;;;;4920952;29;20345;-66
2022/04/07 03:20:45;;;;;;;1.30;1.10;;;;;;;;;;4923536;29;20044;-70
2022/04/07 03:23:11;;;;;;;1.30;1.20;;;;;;;;;;4923259;29;20052;-68
2022/04/07 03:25:36;;;;;;;1.30;1.20;;;;;;;;;;4923699;29;20039;-67
2022/04/07 03:28:04;;;;;;;1.40;1.30;;;;;;;;;;4922970;28;20074;-67
2022/04/07 03:30:29;;;;;;;1.40;1.20;;;;;;;;;;4918894;29;20044;-67
2022/04/07 03:32:54;;;;;;;1.30;1.20;;;;;;;;;;4923062;29;20040;-66
2022/04/07 03:35:20;;;;;;;2.15;1.45;;;;;;;;;;4926801;29;20055;-65
2022/04/07 03:37:45;;;;;;;1.73;1.27;;;;;;;;;;4934396;28;20039;-67
2022/04/07 03:40:12;;;;;;;1.58;1.23;;;;;;;;;;4942264;28;20336;-65
2022/04/07 03:42:37;;;;;;;1.45;1.20;;;;;;;;;;4926844;29;20100;-65
2022/04/07 03:45:03;;;;;;;2.17;1.13;;;;;;;;;;4922108;29;20044;-65
2022/04/07 03:47:30;;;;;;;3.17;1.50;;;;;;;;;;4936631;29;20047;-64
2022/04/07 03:49:55;;;;;;;2.03;1.48;;;;;;;;;;4936685;28;20088;-64
2022/04/07 03:52:21;;;;;;;0.98;0.98;;;;;;;;;;4921972;29;20055;-64
2022/04/07 03:54:46;;;;;;;1.20;1.10;;;;;;;;;;4925353;29;20066;-63
2022/04/07 03:57:11;;;;;;;2.38;1.30;;;;;;;;;;4924639;29;20166;-66
2022/04/07 03:59:38;;;;;;;1.00;0.90;;;;;;;;;;4919128;29;20050;-65
2022/04/07 04:02:05;;;;;;;1.67;1.05;;;;;;;;;;4919664;29;20043;-65
2022/04/07 04:04:31;;;;;;;1.45;1.10;;;;;;;;;;4925092;29;20088;-65
2022/04/07 04:06:56;;;;;;;1.35;1.20;;;;;;;;;;4925223;29;20268;-65
2022/04/07 04:09:22;;;;;;;2.17;1.17;;;;;;;;;;4924857;29;20219;-65
2022/04/07 04:11:47;;;;;;;3.13;1.55;;;;;;;;;;4920580;29;20111;-63
2022/04/07 04:14:12;;;;;;;1.15;1.10;;;;;;;;;;4936719;29;20252;-65
2022/04/07 04:16:38;;;;;;;1.25;1.05;;;;;;;;;;4943129;28;20340;-66
2022/04/07 04:19:04;;;;;;;1.25;1.15;;;;;;;;;;4943874;28;20059;-65
2022/04/07 04:21:29;;;;;;;1.17;1.08;;;;;;;;;;4945418;29;20335;-65
2022/04/07 04:23:55;;;;;;;2.38;1.30;;;;;;;;;;4941343;28;20119;-65
2022/04/07 04:26:20;;;;;;;1.52;1.10;;;;;;;;;;4942336;28;20127;-65
2022/04/07 04:28:45;;;;;;;2.15;1.40;;;;;;;;;;4941385;28;20042;-65
2022/04/07 04:31:11;;;;;;;1.55;1.40;;;;;;;;;;4943711;28;20320;-66
2022/04/07 04:33:36;;;;;;;2.15;1.52;;;;;;;;;;4940364;29;20032;-65
2022/04/07 04:36:01;;;;;;;1.70;1.30;;;;;;;;;;4937141;28;20142;-65
2022/04/07 04:38:27;;;;;;;1.35;1.25;;;;;;;;;;4940376;28;20048;-63
2022/04/07 04:40:52;;;;;;;1.52;1.42;;;;;;;;;;4936234;29;20047;-64
2022/04/07 04:43:17;;;;;;;2.47;1.30;;;;;;;;;;4922300;29;20135;-64
2022/04/07 04:45:43;;;;;;;3.10;1.30;;;;;;;;;;4923074;29;20035;-63
2022/04/07 04:48:08;;;;;;;1.17;1.13;;;;;;;;;;4926502;29;20051;-64
2022/04/07 04:50:34;;;;;;;1.42;1.33;;;;;;;;;;4926637;28;20115;-65
2022/04/07 04:53:00;;;;;;;1.20;1.00;;;;;;;;;;4924928;29;20040;-65
2022/04/07 04:55:25;;;;;;;1.85;1.30;;;;;;;;;;4916188;29;20052;-65
2022/04/07 04:57:50;;;;;;;1.30;1.20;;;;;;;;;;4922091;29;20044;-65
2022/04/07 05:00:16;;;;;;;1.85;1.00;;;;;;;;;;4938081;29;20212;-66
2022/04/07 05:02:41;;;;;;;2.15;1.02;;;;;;;;;;4939525;28;20036;-65
2022/04/07 05:05:07;;;;;;;1.20;1.10;;;;;;;;;;4941754;28;20288;-65
2022/04/07 05:07:33;;;;;;;1.35;0.93;;;;;;;;;;4937168;29;20040;-66
2022/04/07 05:09:58;;;;;;;1.00;0.90;;;;;;;;;;4940417;28;20151;-64
2022/04/07 05:12:26;;;;;;;1.75;1.00;;;;;;;;;;4937893;29;20033;-65
2022/04/07 05:14:52;;;;;;;1.05;0.95;;;;;;;;;;4941961;28;20488;-65
2022/04/07 05:17:20;;;;;;;1.20;0.90;;;;;;;;;;4937001;29;20055;-66
2022/04/07 05:19:46;;;;;;;1.85;1.48;;;;;;;;;;4930466;29;20237;-66
2022/04/07 05:22:12;;;;;;;1.98;1.10;;;;;;;;;;4921565;29;20047;-60
2022/04/07 05:24:37;;;;;;;2.33;0.98;;;;;;;;;;4925162;29;20036;-60
2022/04/07 05:27:03;;;;;;;1.65;0.90;;;;;;;;;;4924043;29;20095;-59
2022/04/07 05:29:28;;;;;;;1.17;1.08;;;;;;;;;;4920349;29;20045;-60
2022/04/07 05:31:54;;;;;;;0.80;0.77;;;;;;;;;;4920293;29;20364;-61
2022/04/07 05:34:19;;;;;;;1.48;0.63;;;;;;;;;;4924337;29;20324;-60
2022/04/07 05:36:45;;;;;;;1.27;0.75;;;;;;;;;;4924072;29;20163;-60
2022/04/07 05:39:10;;;;;;;1.90;0.90;;;;;;;;;;4921170;29;20082;-61
2022/04/07 05:41:35;;;;;;;0.90;0.90;;;;;;;;;;4920252;29;20043;-62
2022/04/07 05:44:01;;;;;;;1.63;0.70;;;;;;;;;;4920578;29;20117;-62
2022/04/07 05:46:26;;;;;;;1.25;0.93;;;;;;;;;;4923230;29;20063;-60
2022/04/07 05:48:51;;;;;;;0.80;0.80;;;;;;;;;;4921128;29;20028;-63
2022/04/07 05:51:17;;;;;;;1.00;0.75;;;;;;;;;;4925336;29;20055;-60
2022/04/07 05:53:42;;;;;;;2.15;0.90;;;;;;;;;;4935393;29;20046;-59
2022/04/07 05:56:08;;;;;;;1.60;0.70;;;;;;;;;;4928336;28;20107;-61
2022/04/07 05:58:33;;;;;;;1.20;0.50;;;;;;;;;;4923817;28;20036;-61
2022/04/07 06:00:59;;;;;;;1.77;1.10;;;;;;;;;;4923079;29;20114;-59
2022/04/07 06:03:24;;;;;;;2.67;1.20;;;;;;;;;;4918415;29;20061;-60
2022/04/07 06:05:52;;;;;;;2.33;0.63;;;;;;;;;;4922742;29;20098;-62
2022/04/07 06:08:18;;;;;;;0.90;0.65;;;;;;;;;;4919424;29;20206;-61
2022/04/07 06:10:44;;;;;;;2.10;0.50;;;;;;;;;;4923239;29;20054;-62
2022/04/07 06:13:11;;;;;;;2.53;0.80;;;;;;;;;;4920679;29;20512;-62
2022/04/07 06:15:37;;;;;;;3.22;0.80;;;;;;;;;;4921643;29;20111;-62
2022/04/07 06:18:03;;;;;;;1.17;0.50;;;;;;;;;;4920830;29;20040;-61
2022/04/07 06:20:28;;;;;;;0.60;0.40;;;;;;;;;;4937490;29;20260;-63
2022/04/07 06:22:54;;;;;;;0.75;0.50;;;;;;;;;;4934461;28;20043;-61
2022/04/07 06:25:19;;;;;;;0.93;0.50;;;;;;;;;;4923620;29;20051;-51
2022/04/07 06:27:46;;;;;;;2.28;0.65;;;;;;;;;;4924348;29;20250;-57
2022/04/07 06:30:16;;;;;;;1.25;0.60;;;;;;;;;;4919492;29;20060;-56
2022/04/07 06:32:44;;;;;;;0.95;0.60;;;;;;;;;;4920846;29;20043;-55
2022/04/07 06:35:11;;;;;;;0.60;0.60;;;;;;;;;;4923657;29;20040;-57
2022/04/07 06:37:46;;;;;;;3.80;0.60;;;;;;;;;;4928479;29;20047;-56
2022/04/07 06:40:12;;;;;;;0.50;0.50;;;;;;;;;;4939240;28;20054;-57
2022/04/07 06:42:37;;;;;;;1.40;0.55;;;;;;;;;;4943317;29;20039;-53
2022/04/07 06:45:05;;;;;;;1.75;0.80;;;;;;;;;;4936155;28;20324;-57
2022/04/07 06:47:36;;;;;;;0.93;0.50;;;;;;;;;;4927703;29;20040;-57
2022/04/07 06:50:02;;;;;;;1.30;0.40;;;;;;;;;;4940228;29;20047;-57
2022/04/07 06:52:28;;;;;;;0.88;0.40;;;;;;;;;;4937353;28;20218;-57
2022/04/07 06:54:53;;;;;;;0.38;0.38;;;;;;;;;;4938735;29;20038;-58
2022/04/07 06:57:18;;;;;;;1.90;0.50;;;;;;;;;;4924394;29;20036;-54
2022/04/07 06:59:44;;;;;;;2.40;0.90;;;;;;;;;;4920172;28;20152;-54
2022/04/07 07:02:09;;;;;;;1.85;0.40;;;;;;;;;;4921766;29;20364;-58
2022/04/07 07:04:34;;;;;;;2.80;1.05;;;;;;;;;;4923256;29;20233;-57
2022/04/07 07:07:00;;;;;;;0.60;0.60;;;;;;;;;;4922715;29;20313;-57
2022/04/07 07:09:25;;;;;;;1.83;0.70;;;;;;;;;;4927552;29;20032;-59
2022/04/07 07:11:51;;;;;;;1.30;0.52;;;;;;;;;;4923533;29;20453;-59
2022/04/07 07:14:17;;;;;;;1.80;0.70;;;;;;;;;;4925503;29;20040;-58
2022/04/07 07:16:42;;;;;;;2.22;0.52;;;;;;;;;;4926523;29;20040;-57
2022/04/07 07:19:10;;;;;;;0.85;0.40;;;;;;;;;;4919984;29;20056;-57
2022/04/07 07:21:36;;;;;;;0.77;0.40;;;;;;;;;;4924423;29;20107;-57
2022/04/07 07:24:01;;;;;;;0.32;0.32;;;;;;;;;;4926668;29;20136;-57
2022/04/07 07:26:26;;;;;;;2.50;0.73;;;;;;;;;;4935886;29;20271;-59
2022/04/07 07:28:52;;;;;;;1.05;0.88;;;;;;;;;;4937068;28;20051;-57
2022/04/07 07:31:17;;;;;;;1.20;0.40;;;;;;;;;;4927072;29;20044;-57
2022/04/07 07:33:42;;;;;;;0.50;0.20;;;;;;;;;;4927339;29;20024;-57
2022/04/07 07:36:08;;;;;;;0.63;0.40;;;;;;;;;;4927159;29;20039;-57
2022/04/07 07:38:33;;;;;;;0.50;0.45;;;;;;;;;;4926492;29;20115;-54
2022/04/07 07:40:59;;;;;;;0.30;0.30;;;;;;;;;;4921712;29;20225;-52
2022/04/07 07:43:24;;;;;;;1.13;0.30;;;;;;;;;;4930884;29;20047;-55
2022/04/07 07:45:50;;;;;;;0.63;0.50;;;;;;;;;;4945904;28;20249;-54
2022/04/07 07:48:18;;;;;;;0.35;0.28;;;;;;;;;;4923555;29;20044;-56
2022/04/07 07:50:45;;;;;;;0.75;0.40;;;;;;;;;;4926485;28;20052;-54
2022/04/07 07:53:11;;;;;;;0.17;0.17;;;;;;;;;;4934802;28;20059;-56
2022/04/07 07:55:37;;;;;;;0.60;0.35;;;;;;;;;;4938302;28;20052;-56
2022/04/07 07:58:03;;;;;;;0.20;0.20;;;;;;;;;;4923422;29;20082;-58
2022/04/07 08:00:29;;;;;;;0.40;0.40;;;;;;;;;;4926818;29;20303;-57
2022/04/07 08:02:54;;;;;;;0.52;0.30;;;;;;;;;;4943015;29;20225;-56
2022/04/07 08:05:20;;;;;;;0.95;0.30;;;;;;;;;;4931378;28;20076;-75
2022/04/07 08:07:45;;;;;;;1.15;0.40;;;;;;;;;;4939864;29;20048;-73
2022/04/07 08:10:11;;;;;;;1.17;0.28;;;;;;;;;;4929002;29;20151;-73
2022/04/07 08:12:37;;;;;;;0.82;0.40;;;;;;;;;;4946387;29;20038;-73
2022/04/07 08:15:04;;;;;;;1.65;0.30;;;;;;;;;;4926872;28;20344;-74
2022/04/07 08:17:30;;;;;;;0.38;0.28;;;;;;;;;;4935685;28;20052;-70
2022/04/07 08:19:55;;;;;;;1.55;0.20;;;;;;;;;;4944944;28;20156;-75
2022/04/07 08:22:21;;;;;;;1.17;0.20;;;;;;;;;;4941298;28;20224;-73
2022/04/07 08:24:46;;;;;;;0.85;0.30;;;;;;;;;;4926379;29;20056;-73
2022/04/07 08:27:14;;;;;;;0.30;0.30;;;;;;;;;;4943265;29;20035;-75
2022/04/07 08:29:40;;;;;;;1.15;0.40;;;;;;;;;;4929845;28;20052;-74
2022/04/07 08:32:06;;;;;;;1.85;0.30;;;;;;;;;;4923285;29;20047;-73
2022/04/07 08:34:31;;;;;;;0.30;0.20;;;;;;;;;;4932004;29;20044;-75
2022/04/07 08:36:57;;;;;;;0.40;0.35;;;;;;;;;;4940614;28;20039;-74
2022/04/07 08:39:22;;;;;;;0.55;0.17;;;;;;;;;;4923822;29;20040;-76
2022/04/07 08:41:48;;;;;;;0.55;0.40;;;;;;;;;;4925566;29;20131;-74
2022/04/07 08:44:17;;;;;;;0.47;0.20;;;;;;;;;;4934100;29;20360;-75
2022/04/07 08:46:51;;;;;;;1.30;0.13;;;;;;;;;;4934743;28;20063;-75
2022/04/07 08:49:20;;;;;;;0.38;0.20;;;;;;;;;;4926939;28;20091;-74
2022/04/07 08:51:46;;;;;;;0.10;0.10;;;;;;;;;;4926379;28;20028;-75
2022/04/07 08:54:12;;;;;;;0.03;0.03;;;;;;;;;;4940637;28;20053;-75
2022/04/07 08:56:39;;;;;;;0.20;0.20;;;;;;;;;;4939010;29;20107;-76
2022/04/07 08:59:04;;;;;;;0.75;0.30;;;;;;;;;;4940705;28;20225;-74
2022/04/07 09:01:29;;;;;;;0.20;0.10;;;;;;;;;;4939293;28;20040;-61
2022/04/07 09:03:55;;;;;;;0.20;0.20;;;;;;;;;;4924355;28;20036;-60
2022/04/07 09:06:21;;;;;;;1.13;0.17;;;;;;;;;;4931008;29;20031;-59
2022/04/07 09:08:47;;;;;;;0.10;0.10;;;;;;;;;;4940572;28;20128;-59
2022/04/07 09:11:12;;;;;;;1.52;0.17;;;;;;;;;;4933536;28;20115;-59
2022/04/07 09:13:42;;;;;;;0.08;0.08;;;;;;;;;;4925476;29;20115;-59
2022/04/07 09:16:13;;;;;;;0.10;0.10;;;;;;;;;;4924819;29;20024;-58
2022/04/07 09:18:44;;;;;;;1.23;0.20;;;;;;;;;;4940507;29;20038;-61
2022/04/07 09:21:18;;;;;;;0.77;0.20;;;;;;;;;;4937317;28;20063;-58
2022/04/07 09:23:44;;;;;;;0.10;0.10;;;;;;;;;;4936502;28;20040;-58
2022/04/07 09:26:14;;;;;;;0.30;0.20;;;;;;;;;;4931145;29;20568;-59
2022/04/07 09:28:40;;;;;;;0.50;0.17;;;;;;;;;;4922564;29;20040;-59
2022/04/07 09:31:06;;;;;;;0.05;0.00;;;;;;;;;;4921856;29;20028;-60
2022/04/07 09:33:32;;;;;;;4.85;0.08;;;;;;;;;;4919430;29;20104;-58
2022/04/07 09:36:02;;;;;;;2.00;0.13;;;;;;;;;;4922886;29;20047;-58
2022/04/07 09:38:30;;;;;;;1.55;0.20;;;;;;;;;;4919640;29;20071;-60
2022/04/07 09:41:03;;;;;;;0.00;0.00;;;;;;;;;;4920535;29;20082;-60
2022/04/07 09:43:28;;;;;;;;;;;;;;;;;;4921676;29;20048;-59
2022/04/07 09:45:55;;;;;;;0.80;0.28;;;;;;;;;;4922820;29;19945;-59
2022/04/07 09:48:20;;;;;;;0.88;0.40;;;;;;;;;;4918584;29;20132;-61
2022/04/07 09:51:02;;;;;;;0.10;0.10;;;;;;;;;;4920121;29;20059;-63
2022/04/07 09:53:38;;;;;;;0.20;0.10;;;;;;;;;;4922393;29;20178;-60
2022/04/07 09:56:07;;;;;;;0.15;0.15;;;;;;;;;;4919830;29;20044;-61
2022/04/07 09:58:34;;;;;;;0.38;0.10;;;;;;;;;;4921104;29;20044;-59
2022/04/07 10:01:04;;;;;;;1.50;0.65;;;;;;;;;;4920889;29;20036;-60
2022/04/07 10:03:31;;;;;;;0.25;0.10;;;;;;;;;;4920975;29;20032;-60
2022/04/07 10:05:59;;;;;;;0.73;0.20;;;;;;;;;;4918543;29;20062;-59
2022/04/07 10:08:26;;;;;;;0.10;0.10;;;;;;;;;;4918767;29;20079;-58
2022/04/07 10:10:52;;;;;;;0.73;0.10;;;;;;;;;;4922205;29;20063;-60
2022/04/07 10:13:18;;;;;;;0.52;0.10;;;;;;;;;;4921109;29;20631;-58
2022/04/07 10:15:44;;;;;;;0.40;0.10;;;;;;;;;;4919103;29;20048;-60
2022/04/07 10:18:17;;;;;;;0.20;0.10;;;;;;;;;;4917992;29;20158;-59
2022/04/07 10:20:48;;;;;;;0.32;0.20;;;;;;;;;;4919251;29;20463;-59
2022/04/07 10:23:25;;;;;;;0.85;0.13;;;;;;;;;;4916741;29;20115;-58
2022/04/07 10:25:52;;;;;;;0.70;0.22;;;;;;;;;;4919500;29;20122;-60
2022/04/07 10:28:19;;;;;;;0.03;0.00;;;;;;;;;;4921718;29;20096;-58
2022/04/07 10:30:52;;;;;;;0.47;0.17;;;;;;;;;;4922322;29;20319;-60
2022/04/07 10:33:34;;;;;;;0.20;0.10;;;;;;;;;;4936872;29;20035;-58
2022/04/07 10:36:00;;;;;;;2.60;0.20;;;;;;;;;;4941162;28;20047;-59
2022/04/07 10:38:41;;;;;;;0.20;0.10;;;;;;;;;;4939162;29;20059;-59
2022/04/07 10:41:07;;;;;;;0.00;0.00;;;;;;;;;;4937134;28;20043;-58
2022/04/07 10:43:38;;;;;;;0.45;0.00;;;;;;;;;;4943216;28;20047;-61
2022/04/07 10:46:06;;;;;;;0.20;0.05;;;;;;;;;;4940151;29;20114;-63
2022/04/07 10:48:58;;;;;;;0.03;0.03;;;;;;;;;;4927216;29;20044;-61
2022/04/07 10:51:53;;;;;;;0.25;0.10;;;;;;;;;;4942153;29;20074;-61
2022/04/07 10:54:21;;;;;;;0.00;0.00;;;;;;;;;;4921462;29;20071;-61
2022/04/07 10:56:49;;;;;;;0.15;0.10;;;;;;;;;;4934924;29;20229;-59
2022/04/07 10:59:17;;;;;;;0.10;0.10;;;;;;;;;;4940685;28;20071;-60
2022/04/07 11:01:42;;;;;;;0.08;0.08;;;;;;;;;;4942020;28;20061;-61
2022/04/07 11:04:20;;;;;;;0.08;0.08;;;;;;;;;;4941426;28;20035;-61
2022/04/07 11:07:04;;;;;;;0.00;0.00;;;;;;;;;;4943894;29;20146;-60
2022/04/07 11:09:52;;;;;;;0.17;0.10;;;;;;;;;;4941654;29;20052;-61
2022/04/07 11:12:19;;;;;;;1.65;0.00;;;;;;;;;;4942646;29;20036;-61
2022/04/07 11:14:46;;;;;;;0.00;0.00;;;;;;;;;;4944219;28;20229;-62
2022/04/07 11:17:26;;;;;;;0.20;0.17;;;;;;;;;;4940470;28;20048;-61
2022/04/07 11:20:04;;;;;;;1.02;0.10;;;;;;;;;;4933197;29;20142;-61
2022/04/07 11:22:52;;;;;;;0.10;0.10;;;;;;;;;;4923198;29;20048;-60
2022/04/07 11:25:42;;;;;;;0.13;0.10;;;;;;;;;;4924614;29;20110;-61
2022/04/07 11:28:15;;;;;;;0.10;0.10;;;;;;;;;;4939948;28;20078;-61
2022/04/07 11:30:42;;;;;;;0.20;0.10;;;;;;;;;;4923634;29;20111;-60
2022/04/07 11:33:28;;;;;;;2.47;0.10;;;;;;;;;;4924517;29;20044;-60
2022/04/07 11:35:59;;;;;;;2.67;0.85;;;;;;;;;;4921837;29;20311;-60
2022/04/07 11:38:35;;;;;;;0.70;0.65;;;;;;;;;;4924883;29;20067;-61
2022/04/07 11:41:03;;;;;;;0.00;0.00;;;;;;;;;;4922510;29;20120;-61
2022/04/07 11:43:29;;;;;;;0.00;0.00;;;;;;;;;;4922880;29;20054;-61
2022/04/07 11:45:55;;;;;;;0.10;0.10;;;;;;;;;;4923653;29;20099;-59
2022/04/07 11:48:21;;;;;;;0.00;0.00;;;;;;;;;;4925647;29;20058;-60
2022/04/07 11:50:46;;;;;;;0.65;0.10;;;;;;;;;;4925282;29;20333;-60
2022/04/07 11:53:12;;;;;;;0.00;0.00;;;;;;;;;;4922268;29;20348;-61
2022/04/07 11:55:38;;;;;;;0.00;0.00;;;;;;;;;;4921851;29;20198;-60
2022/04/07 11:58:03;;;;;;;0.10;0.10;;;;;;;;;;4927686;28;20036;-59
2022/04/07 12:00:32;;;;;;;0.00;0.00;;;;;;;;;;4941224;29;20035;-60
2022/04/07 12:03:01;;;;;;;0.10;0.10;;;;;;;;;;4928030;28;20068;-61
2022/04/07 12:05:28;;;;;;;1.20;0.10;;;;;;;;;;4925262;28;20089;-61
2022/04/07 12:07:54;;;;;;;0.20;0.00;;;;;;;;;;4925508;28;20107;-60
2022/04/07 12:10:20;;;;;;;0.52;0.00;;;;;;;;;;4924208;29;20051;-62
2022/04/07 12:12:46;;;;;;;0.00;0.00;;;;;;;;;;4926536;29;20083;-62
2022/04/07 12:15:13;;;;;;;0.10;0.00;;;;;;;;;;4925624;29;20040;-59
2022/04/07 12:18:26;;;;;;;0.08;0.08;;;;;;;;;;4926155;29;20055;-61
2022/04/07 12:21:03;;;;;;;0.80;0.10;;;;;;;;;;4922982;29;20048;-60
2022/04/07 12:23:28;;;;;;;0.10;0.10;;;;;;;;;;4922150;29;20052;-61
2022/04/07 12:26:01;;;;;;;0.15;0.03;;;;;;;;;;4927764;28;20059;-60
2022/04/07 12:28:39;;;;;;;0.10;0.10;;;;;;;;;;4924872;29;20091;-59
2022/04/07 12:31:20;;;;;;;0.98;0.20;;;;;;;;;;4920252;29;20028;-60
2022/04/07 12:33:47;;;;;;;0.22;0.15;;;;;;;;;;4920907;29;20037;-60
2022/04/07 12:36:30;;;;;;;0.20;0.10;;;;;;;;;;4938037;29;20040;-77
2022/04/07 12:39:00;;;;;;;7.77;5.40;;;;;;;;;;4929097;28;20063;-73
2022/04/07 12:41:41;;;;;;;5.00;3.40;;;;;;;;;;4924566;28;20377;-78
2022/04/07 12:44:08;;;;;;;0.10;0.10;;;;;;;;;;4925575;28;20095;-75
2022/04/07 12:46:51;;;;;;;0.20;0.20;;;;;;;;;;4924989;28;20044;-60
2022/04/07 12:49:33;;;;;;;3.20;0.13;;;;;;;;;;4923254;29;20039;-61
2022/04/07 12:52:13;;;;;;;0.97;0.20;;;;;;;;;;4920572;29;20111;-62
2022/04/07 12:54:57;;;;;;;3.92;0.30;;;;;;;;;;4919599;29;20024;-62
2022/04/07 12:57:38;;;;;;;3.50;0.68;;;;;;;;;;4941554;29;20218;-60
2022/04/07 13:00:07;;;;;;;1.48;0.30;;;;;;;;;;4939788;28;20055;-61
2022/04/07 13:02:52;;;;;;;0.70;0.38;;;;;;;;;;4938263;28;20048;-61
2022/04/07 13:05:21;;;;;;;1.40;0.32;;;;;;;;;;4939760;28;20050;-63
2022/04/07 13:07:47;;;;;;;2.35;0.73;;;;;;;;;;4938923;29;20155;-62
2022/04/07 13:10:13;;;;;;;0.93;0.50;;;;;;;;;;4938621;29;20043;-62
2022/04/07 13:12:40;;;;;;;2.20;0.50;;;;;;;;;;4937010;29;20074;-62
2022/04/07 13:15:07;;;;;;;7.53;0.57;;;;;;;;;;4937102;28;20052;-60
2022/04/07 13:17:32;;;;;;;2.20;0.47;;;;;;;;;;4955694;28;20270;-61
2022/04/07 13:19:58;;;;;;;1.08;0.30;;;;;;;;;;4938678;28;20103;-62
2022/04/07 13:22:24;;;;;;;0.57;0.20;;;;;;;;;;4941945;28;20059;-61
2022/04/07 13:24:53;;;;;;;0.52;0.30;;;;;;;;;;4938644;29;20348;-59
2022/04/07 13:27:18;;;;;;;0.47;0.28;;;;;;;;;;4938581;29;20039;-62
2022/04/07 13:29:45;;;;;;;1.13;0.28;;;;;;;;;;4940247;29;20045;-60
2022/04/07 13:32:10;;;;;;;1.35;0.45;;;;;;;;;;4940324;28;20078;-60
2022/04/07 13:34:36;;;;;;;0.38;0.30;;;;;;;;;;4938291;29;20056;-60
2022/04/07 13:37:01;;;;;;;0.28;0.28;;;;;;;;;;4941394;29;20200;-61
2022/04/07 13:39:27;;;;;;;0.98;0.50;;;;;;;;;;4939768;29;20087;-63
2022/04/07 13:41:54;;;;;;;0.82;0.38;;;;;;;;;;4941201;29;20102;-60
2022/04/07 13:44:19;;;;;;;1.67;0.30;;;;;;;;;;4935330;29;20250;-60
2022/04/07 13:46:44;;;;;;;0.28;0.28;;;;;;;;;;4939774;29;20103;-61
2022/04/07 13:49:11;;;;;;;0.65;0.30;;;;;;;;;;4939087;28;20059;-60
2022/04/07 13:51:37;;;;;;;1.23;0.60;;;;;;;;;;4937913;29;20040;-60
2022/04/07 13:54:03;;;;;;;1.85;0.50;;;;;;;;;;4937174;28;20206;-61
2022/04/07 13:56:28;;;;;;;2.40;0.30;;;;;;;;;;4942050;28;20042;-61
2022/04/07 13:58:53;;;;;;;2.30;0.38;;;;;;;;;;4933686;29;20067;-61
2022/04/07 14:01:21;;;;;;;0.30;0.20;;;;;;;;;;4923853;29;20134;-61
2022/04/07 14:03:47;;;;;;;0.50;0.20;;;;;;;;;;4922791;29;20039;-62
2022/04/07 14:06:12;;;;;;;0.75;0.30;;;;;;;;;;4941210;28;20332;-61
2022/04/07 14:08:38;;;;;;;0.20;0.20;;;;;;;;;;4927196;28;20040;-60
2022/04/07 14:11:04;;;;;;;1.45;0.52;;;;;;;;;;4924376;29;20171;-61
2022/04/07 14:13:30;;;;;;;1.38;0.17;;;;;;;;;;4928201;29;20110;-61
2022/04/07 14:15:56;;;;;;;1.05;0.25;;;;;;;;;;4940906;29;20039;-62
2022/04/07 14:18:22;;;;;;;1.20;0.35;;;;;;;;;;4940227;29;20043;-61
2022/04/07 14:20:48;;;;;;;0.85;0.22;;;;;;;;;;4942497;28;20387;-60
2022/04/07 14:23:15;;;;;;;1.45;0.20;;;;;;;;;;4937653;29;20051;-62
2022/04/07 14:25:41;;;;;;;0.22;0.22;;;;;;;;;;4939915;29;20295;-60
2022/04/07 14:28:08;;;;;;;3.22;0.43;;;;;;;;;;4937076;29;20118;-61
2022/04/07 14:30:35;;;;;;;2.72;0.28;;;;;;;;;;4953887;28;20047;-61
2022/04/07 14:33:01;;;;;;;0.80;0.28;;;;;;;;;;4940973;29;20107;-62
2022/04/07 14:35:27;;;;;;;0.40;0.20;;;;;;;;;;4942164;29;20228;-61
2022/04/07 14:37:52;;;;;;;0.80;0.30;;;;;;;;;;4940321;29;20044;-61
2022/04/07 14:40:18;;;;;;;0.70;0.30;;;;;;;;;;4934788;29;20083;-61
2022/04/07 14:42:44;;;;;;;1.27;0.63;;;;;;;;;;4940860;29;20492;-61
2022/04/07 14:45:10;;;;;;;1.48;0.50;;;;;;;;;;4938968;28;20059;-61